Parker, Illinois
Current Conditions -  °F | °C
As of 3:02 PM on Monday 24 Nov 2014 (Local Time) from KMTO Reporting Station
Overcast Overcast  
Wind Chill: 28°   Ceiling: 3100
Heat Index: 37°   Visibility: 10mi
Dew Point: 27°   Wind: 14mph
Humidity: 67%   Direction: 250°WSW
Pressure: 29.72"   Gusts: 28mph
Location:  39.4316°N, 88.0561°W
Report Text: KMTO 242102Z AUTO 25012G24KT 10SM OVC031 03/M03 A2972 RMK AO2 T00281028
Loading
Personal Weather Stations






























Interactive Weather Map New forecast layout! Learn more

10-Day Weather Forecast

Advertisements
Track Severe Weather on mobile